Latest Coastal Weather Observations for Lombadina

IDW60701

Issued at 7:03 pm WST Saturday 23 September 2017 (issued every 10 minutes, with the page automatically refreshed every 10 minutes)

About coastal observations | Map of coastal stations | Coastal observations for WA | Marine services | Other Formats
Station Details ID: 503016 Name: LOMBADINA AIRSTRIP Lat: -16.52 Lon: 122.92 Height: 42.0 m
Data from the previous 72 hours. | See also: Recent months for locations in Western Australia
Date/Time
WST
Temp
°C
Wind Pressure Rain since
9am
mm
Weather Cloud Vis
km
Sea
Height
m
Swell
Dir  Spd
kts
Gust
kts
hPa Trend Height
m
Period
s
Dir
23/07:00pm 25.7 W 4 8 1011.6 - 0.0 - Clear 10 - - - -
23/06:30pm 26.0 W 5 8 1011.2 - 0.0 - - 10 - - - -
23/06:00pm 26.4 W 4 8 1011.1 - 0.0 - - 10 - - - -
23/05:30pm 27.1 W 6 11 1011.0 - 0.0 - - 10 - - - -
23/05:00pm 27.9 W 6 12 1010.8 - 0.0 - - 10 - - - -
23/04:30pm 28.4 W 8 13 1010.7 - 0.0 - - 10 - - - -
23/04:00pm 29.1 W 9 14 1010.7 - 0.0 - - 10 - - - -
23/03:30pm 29.4 W 9 16 1010.6 - 0.0 - - 10 - - - -
23/03:00pm 29.3 W 8 16 1010.5 - 0.0 - - 10 - - - -
23/02:30pm 29.6 W 10 18 1010.7 - 0.0 - - 10 - - - -
23/02:00pm 30.1 W 9 16 1011.0 - 0.0 - - 10 - - - -
23/01:30pm 30.1 WNW 9 16 1011.6 - 0.0 - - 10 - - - -
23/01:00pm 29.4 NW 9 12 1011.9 - 0.0 - - 10 - - - -
23/12:30pm 29.1 NW 9 13 1012.4 - 0.0 - - 10 - - - -
23/12:00pm 29.2 NW 9 14 1012.9 - 0.0 - - 10 - - - -
23/11:30am 30.3 WNW 8 13 1013.2 - 0.0 - - 10 - - - -
23/11:00am 30.1 NW 8 13 1013.5 - 0.0 - - 10 - - - -
23/10:30am 30.2 NW 7 12 1013.8 - 0.0 - Partly cloudy 10 - - - -
23/10:00am 30.4 NW 7 11 1014.1 - 0.0 - Partly cloudy 10 - - - -
23/09:30am 30.8 S 3 7 1014.3 - 0.0 - Partly cloudy 10 - - - -
23/09:00am 29.8 SSE 2 5 1014.5 - 0.0 - Partly cloudy 10 - - - -
23/08:30am 29.3 CALM 0 2 1014.6 - 0.0 - Cloudy 10 - - - -
23/08:00am 27.7 ESE 1 4 1014.5 - 0.0 - Partly cloudy 10 - - - -
23/07:30am 26.4 ENE 1 3 1014.2 - 0.0 - Partly cloudy 10 - - - -
23/07:00am 24.7 E 2 3 1013.8 - 0.0 - Partly cloudy 10 - - - -
23/06:30am 22.5 ENE 1 3 1013.5 - 0.0 - Partly cloudy 10 - - - -
23/06:00am 21.8 E 3 4 1013.2 - 0.0 - - 10 - - - -
23/05:30am 21.2 ENE 2 4 1013.0 - 0.0 - - 10 - - - -
23/05:00am 21.7 N 1 4 1012.6 - 0.0 - - 10 - - - -
23/04:30am 21.4 CALM 0 1 1012.1 - 0.0 - - 10 - - - -
23/04:00am 22.4 SW 2 4 1011.7 - 0.0 - - 10 - - - -
23/03:30am 22.5 WSW 3 5 1011.3 - 0.0 - - 10 - - - -
23/03:00am 22.7 WSW 3 5 1011.2 - 0.0 - - 10 - - - -
23/02:30am 23.3 WSW 3 6 1011.3 - 0.0 - - 10 - - - -
23/02:00am 23.4 WSW 4 7 1011.5 - 0.0 - - 10 - - - -
23/01:30am 23.6 WSW 4 6 1011.6 - 0.0 - - 10 - - - -
23/01:00am 23.6 WSW 4 8 1011.7 - 0.0 - - 10 - - - -
23/12:30am 23.8 WSW 4 7 1011.7 - 0.0 - - 10 - - - -
23/12:00am 24.1 WSW 5 8 1011.9 - 0.0 - - 10 - - - -
 
Date/Time
WST
Temp
°C
Wind Pressure Rain since
9am
mm
Weather Cloud Vis
km
Sea
Height
m
Swell
Dir  Spd
kts
Gust
kts
hPa Trend Height
m
Period
s
Dir
22/11:30pm 24.2 WSW 4 8 1012.3 - 0.0 - - 10 - - - -
22/11:00pm 24.5 WSW 5 9 1012.4 - 0.0 - - 10 - - - -
22/10:30pm 24.6 WSW 5 9 1012.3 - 0.0 - - 10 - - - -
22/10:00pm 24.7 W 5 8 1012.5 - 0.0 - - 10 - - - -
22/09:30pm 24.6 W 3 7 1012.4 - 0.0 - - 10 - - - -
22/09:00pm 24.7 W 4 8 1012.4 - 0.0 - - 10 - - - -
22/08:30pm 25.1 W 4 9 1012.3 - 0.0 - - 10 - - - -
22/08:00pm 25.3 W 4 8 1012.2 - 0.0 - - 10 - - - -
22/07:30pm 25.2 WNW 4 7 1012.2 - 0.0 - - 10 - - - -
22/07:00pm 25.4 WNW 4 7 1011.6 - 0.0 - - 10 - - - -
22/06:30pm 25.6 W 3 7 1011.1 - 0.0 - - 10 - - - -
22/06:00pm 26.3 W 4 8 1011.0 - 0.0 - - 10 - - - -
22/05:30pm 27.3 W 5 8 1010.9 - 0.0 - - 10 - - - -
22/05:00pm 28.3 W 6 10 1010.7 - 0.0 - - 10 - - - -
22/04:30pm 29.4 W 6 10 1010.6 - 0.0 - - 10 - - - -
22/04:00pm 29.3 W 8 13 1010.6 - 0.0 - - 10 - - - -
22/03:30pm 30.5 W 6 11 1010.7 - 0.0 - - 10 - - - -
22/03:00pm 29.9 W 8 14 1010.8 - 0.0 - - 10 - - - -
22/02:30pm 31.2 W 7 12 1010.8 - 0.0 - - 10 - - - -
22/02:00pm 31.5 W 8 14 1011.1 - 0.0 - - 10 - - - -
22/01:30pm 31.7 W 8 12 1011.5 - 0.0 - - 10 - - - -
22/01:00pm 30.9 W 7 12 1011.6 - 0.0 - - 10 - - - -
22/12:30pm 30.3 WNW 9 14 1012.0 - 0.0 - - 10 - - - -
22/12:00pm 30.7 WNW 8 14 1012.3 - 0.0 - - 10 - - - -
22/11:30am 29.8 WNW 8 12 1012.7 - 0.0 - - 10 - - - -
22/11:00am 29.3 NW 7 11 1013.1 - 0.0 - - 10 - - - -
22/10:30am 29.6 WNW 7 11 1013.4 - 0.0 - - 10 - - - -
22/10:00am 29.4 WNW 6 10 1013.7 - 0.0 - - 10 - - - -
22/09:30am 29.3 NW 6 10 1013.8 - 0.0 - - 10 - - - -
22/09:00am 28.9 NW 7 11 1013.8 - 0.0 - - 10 - - - -
22/08:30am 28.1 NW 7 11 1013.7 - 0.0 - - 10 - - - -
22/08:00am 27.4 NNW 5 11 1013.6 - 0.0 - - 10 - - - -
22/07:30am 26.4 NNW 3 5 1013.3 - 0.0 - - 10 - - - -
22/07:00am 24.7 NNE 4 7 1013.1 - 0.0 - - 10 - - - -
22/06:30am 22.7 ENE 7 12 1013.0 - 0.0 - - 10 - - - -
22/06:00am 21.9 ENE 4 6 1012.2 - 0.0 - - 10 - - - -
22/05:30am 21.4 WSW 2 3 1011.6 - 0.0 - - 10 - - - -
22/05:00am 22.2 W 2 5 1011.3 - 0.0 - - 10 - - - -
22/04:30am 22.5 W 2 3 1011.0 - 0.0 - - 10 - - - -
22/04:00am 23.3 W 3 6 1010.5 - 0.0 - - 10 - - - -
22/03:30am 23.5 W 3 6 1010.2 - 0.0 - Partly cloudy 10 - - - -
22/03:00am 23.5 WNW 3 5 1010.2 - 0.0 - - 10 - - - -
22/02:30am 23.2 WNW 3 5 1010.1 - 0.0 - - 10 - - - -
22/02:00am 21.6 NW 3 5 1010.0 - 0.0 - Partly cloudy 10 - - - -
22/01:30am 22.1 W 2 4 1009.8 - 0.0 - - 10 - - - -
22/01:00am 22.1 W 3 6 1009.8 - 0.0 - - 10 - - - -
22/12:30am 22.7 WSW 3 7 1010.0 - 0.0 - - 10 - - - -
22/12:00am 22.8 SW 3 6 1010.1 - 0.0 - - 10 - - - -
 
Date/Time
WST
Temp
°C
Wind Pressure Rain since
9am
mm
Weather Cloud Vis
km
Sea
Height
m
Swell
Dir  Spd
kts
Gust
kts
hPa Trend Height
m
Period
s
Dir
21/11:30pm 22.6 SW 4 7 1010.4 - 0.0 - - 10 - - - -
21/11:00pm 23.0 WSW 4 7 1010.7 - 0.0 - - 10 - - - -
21/10:30pm 23.0 SW 3 6 1011.0 - 0.0 - - 10 - - - -
21/10:00pm 23.2 SW 3 5 1011.2 - 0.0 - - 10 - - - -
21/09:30pm 23.7 WSW 4 7 1011.6 - 0.0 - - 10 - - - -
21/09:00pm 23.6 WSW 3 5 1011.8 - 0.0 - - 10 - - - -
21/08:30pm 23.8 WSW 3 6 1011.6 - 0.0 - - 10 - - - -
21/08:00pm 24.0 WSW 3 5 1011.3 - 0.0 - - 10 - - - -
21/07:30pm 24.4 WSW 3 5 1011.1 - 0.0 - - 10 - - - -
21/07:00pm 24.9 W 3 6 1010.8 - 0.0 - - 10 - - - -
21/06:30pm 25.3 W 4 6 1010.3 - 0.0 - - 10 - - - -
21/06:00pm 25.8 W 3 6 1009.8 - 0.0 - - 10 - - - -
21/05:30pm 26.8 W 5 8 1009.7 - 0.0 - - 10 - - - -
21/05:00pm 28.1 WNW 5 9 1009.4 - 0.0 - - 10 - - - -
21/04:30pm 28.3 WNW 6 9 1009.3 - 0.0 - - 10 - - - -
21/04:00pm 29.2 WNW 7 10 1009.4 - 0.0 - - 10 - - - -
21/03:30pm 29.2 WNW 7 12 1009.5 - 0.0 - - 10 - - - -
21/03:00pm 30.2 WNW 7 12 1009.6 - 0.0 - - 10 - - - -
21/02:30pm 30.2 NW 8 12 1009.8 - 0.0 - - 10 - - - -
21/02:00pm 30.6 NW 7 11 1010.1 - 0.0 - - 10 - - - -
21/01:30pm 30.6 WNW 7 11 1010.6 - 0.0 - - 10 - - - -
21/01:00pm 30.1 NW 7 10 1010.9 - 0.0 - - 10 - - - -
21/12:30pm 30.2 NW 7 10 1011.6 - 0.0 - - 10 - - - -
21/12:00pm 31.4 WNW 6 9 1011.9 - 0.0 - - 10 - - - -
21/11:30am 30.6 NW 7 10 1012.4 - 0.0 - - 10 - - - -
21/11:00am 31.0 WNW 5 8 1012.8 - 0.0 - - 10 - - - -
21/10:30am 30.7 NW 5 8 1013.1 - 0.0 - - 10 - - - -
21/10:00am 29.7 NW 4 8 1013.4 - 0.0 - - 10 - - - -
21/09:30am 29.2 NW 3 6 1013.7 - 0.0 - - 10 - - - -
21/09:00am 28.6 NW 3 5 1013.9 - 0.0 - - 10 - - - -
21/08:30am 27.8 NW 3 5 1013.9 - 0.0 - - 10 - - - -
21/08:00am 26.3 NW 3 5 1013.9 - 0.0 - - 10 - - - -
21/07:30am 25.4 N 1 4 1013.9 - 0.0 - - 10 - - - -
21/07:00am 23.8 NNE 1 2 1013.8 - 0.0 - - 10 - - - -
21/06:49am 22.9 NNE 1 3 1013.7 - 0.0 - Partly cloudy 10 - - - -
21/06:46am 22.9 NNE 1 3 1013.7 - 0.0 - Partly cloudy 10 - - - -
21/06:30am 21.4 ENE 1 2 1013.6 - 0.0 - Partly cloudy 0.5 - - - -
21/06:00am 20.0 ENE 2 3 1013.3 - 0.0 - Partly cloudy 0.3 - - - -
21/05:30am 19.7 SE 1 2 1012.9 - 0.0 - Cloudy 0.3 - - - -
21/05:00am 19.9 CALM 0 1 1012.7 - 0.0 - Cloudy 0.1 - - - -
21/04:40am 19.8 ESE 2 3 1012.6 - 0.0 - Partly cloudy 2 - - - -
21/04:30am 19.9 E 1 3 1012.4 - 0.0 - Partly cloudy 1 - - - -
21/04:00am 20.6 E 2 4 1012.1 - 0.0 - Partly cloudy 5 - - - -
21/03:30am 20.1 CALM 0 1 1011.7 - 0.0 - Partly cloudy 0.5 - - - -
21/03:22am 20.7 CALM 0 2 1011.7 - 0.0 - - 4 - - - -
21/03:16am 20.9 W 1 3 1011.6 - 0.0 - - 10 - - - -
21/03:00am 20.8 CALM 0 2 1011.5 - 0.0 - - 4 - - - -
21/02:59am 21.0 CALM 0 2 1011.5 - 0.0 - - 5 - - - -
21/02:38am 20.4 W 1 4 1011.3 - 0.0 - - 4 - - - -
21/02:30am 20.9 W 1 4 1011.5 - 0.0 - - 8 - - - -
21/02:00am 21.6 WNW 2 4 1011.3 - 0.0 - - 10 - - - -
21/01:30am 20.9 WSW 3 4 1011.3 - 0.0 - - 7 - - - -
21/01:16am 21.4 SW 3 5 1011.3 - 0.0 - - 8 - - - -
21/01:04am 20.8 WSW 3 5 1011.3 - 0.0 - - 5 - - - -
21/01:00am 20.9 WSW 3 5 1011.5 - 0.0 - - 5 - - - -
21/12:30am 21.7 WSW 3 5 1011.3 - 0.0 - - 10 - - - -
21/12:00am 21.4 WSW 3 4 1011.6 - 0.0 - - 10 - - - -
 
Date/Time
WST
Temp
°C
Wind Pressure Rain since
9am
mm
Weather Cloud Vis
km
Sea
Height
m
Swell
Dir  Spd
kts
Gust
kts
hPa Trend Height
m
Period
s
Dir
20/11:30pm 21.9 WSW 3 4 1011.8 - 0.0 - - 10 - - - -
20/11:00pm 22.1 SW 3 6 1011.9 - 0.0 - - 10 - - - -
20/10:30pm 22.2 SW 3 4 1011.9 - 0.0 - - 10 - - - -
20/10:00pm 22.3 WSW 3 4 1011.9 - 0.0 - - 10 - - - -
20/09:30pm 23.3 WSW 3 5 1012.0 - 0.0 - - 10 - - - -
20/09:00pm 23.7 SW 4 6 1012.1 - 0.0 - - 10 - - - -
20/08:30pm 23.5 SW 3 6 1012.0 - 0.0 - - 10 - - - -
20/08:00pm 23.9 SW 3 4 1011.7 - 0.0 - - 10 - - - -
20/07:30pm 24.6 WSW 3 4 1011.6 - 0.0 - - 10 - - - -

Other Formats:

Comma delimited format used in spreadsheet applications
http://www.bom.gov.au/fwo/IDW60701/IDW60701.99206.axf

JavaScript Object Notation format (JSON) in row-major order
http://www.bom.gov.au/fwo/IDW60701/IDW60701.99206.json